sensor_id;sensor_type;location;lat;lon;timestamp;P1;durP1;ratioP1;P2;durP2;ratioP2
15408;SDS011;7803;48.130;13.788;2023-06-24T00:02:48;33.03;;;16.65;;
15408;SDS011;7803;48.130;13.788;2023-06-24T00:05:52;30.90;;;16.83;;
15408;SDS011;7803;48.130;13.788;2023-06-24T00:08:57;25.27;;;13.45;;
15408;SDS011;7803;48.130;13.788;2023-06-24T00:12:01;22.27;;;11.60;;
15408;SDS011;7803;48.130;13.788;2023-06-24T00:15:04;16.65;;;9.40;;
15408;SDS011;7803;48.130;13.788;2023-06-24T00:18:07;16.75;;;8.48;;
15408;SDS011;7803;48.130;13.788;2023-06-24T00:21:11;14.88;;;8.02;;
15408;SDS011;7803;48.130;13.788;2023-06-24T00:24:13;16.65;;;8.50;;
15408;SDS011;7803;48.130;13.788;2023-06-24T00:27:15;14.82;;;7.85;;
15408;SDS011;7803;48.130;13.788;2023-06-24T00:30:17;13.95;;;7.80;;
15408;SDS011;7803;48.130;13.788;2023-06-24T00:33:19;12.82;;;6.88;;
15408;SDS011;7803;48.130;13.788;2023-06-24T00:36:22;13.13;;;7.20;;
15408;SDS011;7803;48.130;13.788;2023-06-24T00:39:24;12.25;;;7.38;;
15408;SDS011;7803;48.130;13.788;2023-06-24T00:42:26;11.43;;;6.68;;
15408;SDS011;7803;48.130;13.788;2023-06-24T00:45:28;10.80;;;6.00;;
15408;SDS011;7803;48.130;13.788;2023-06-24T00:48:31;9.65;;;5.68;;
15408;SDS011;7803;48.130;13.788;2023-06-24T00:51:34;9.90;;;5.88;;
15408;SDS011;7803;48.130;13.788;2023-06-24T00:54:36;9.40;;;5.15;;
15408;SDS011;7803;48.130;13.788;2023-06-24T00:57:38;8.75;;;5.18;;
15408;SDS011;7803;48.130;13.788;2023-06-24T01:00:41;8.38;;;5.20;;
15408;SDS011;7803;48.130;13.788;2023-06-24T01:03:43;7.40;;;5.03;;
15408;SDS011;7803;48.130;13.788;2023-06-24T01:06:48;6.15;;;4.22;;
15408;SDS011;7803;48.130;13.788;2023-06-24T01:09:50;7.97;;;4.40;;
15408;SDS011;7803;48.130;13.788;2023-06-24T01:12:52;5.55;;;4.18;;
15408;SDS011;7803;48.130;13.788;2023-06-24T01:15:54;6.35;;;4.00;;
15408;SDS011;7803;48.130;13.788;2023-06-24T01:18:59;7.13;;;3.65;;
15408;SDS011;7803;48.130;13.788;2023-06-24T01:22:14;4.97;;;3.55;;
15408;SDS011;7803;48.130;13.788;2023-06-24T01:25:33;5.93;;;3.55;;
15408;SDS011;7803;48.130;13.788;2023-06-24T01:32:37;6.40;;;3.13;;
15408;SDS011;7803;48.130;13.788;2023-06-24T01:35:45;3.97;;;3.10;;
15408;SDS011;7803;48.130;13.788;2023-06-24T01:38:50;4.57;;;3.28;;
15408;SDS011;7803;48.130;13.788;2023-06-24T01:41:57;4.00;;;3.10;;
15408;SDS011;7803;48.130;13.788;2023-06-24T01:45:02;4.45;;;2.97;;
15408;SDS011;7803;48.130;13.788;2023-06-24T01:48:09;4.57;;;3.05;;
15408;SDS011;7803;48.130;13.788;2023-06-24T01:51:17;4.13;;;2.83;;
15408;SDS011;7803;48.130;13.788;2023-06-24T01:54:21;3.67;;;2.90;;
15408;SDS011;7803;48.130;13.788;2023-06-24T01:57:25;3.95;;;2.83;;
15408;SDS011;7803;48.130;13.788;2023-06-24T02:00:28;3.30;;;2.58;;
15408;SDS011;7803;48.130;13.788;2023-06-24T02:03:32;2.90;;;2.42;;
15408;SDS011;7803;48.130;13.788;2023-06-24T02:06:36;3.20;;;2.60;;
15408;SDS011;7803;48.130;13.788;2023-06-24T02:09:40;3.17;;;2.65;;
15408;SDS011;7803;48.130;13.788;2023-06-24T02:12:45;3.00;;;2.50;;
15408;SDS011;7803;48.130;13.788;2023-06-24T02:15:49;2.80;;;2.20;;
15408;SDS011;7803;48.130;13.788;2023-06-24T02:18:54;3.80;;;2.75;;
15408;SDS011;7803;48.130;13.788;2023-06-24T02:21:58;2.67;;;2.10;;
15408;SDS011;7803;48.130;13.788;2023-06-24T02:25:01;3.63;;;2.55;;
15408;SDS011;7803;48.130;13.788;2023-06-24T02:28:03;2.30;;;2.10;;
15408;SDS011;7803;48.130;13.788;2023-06-24T02:31:06;3.15;;;2.40;;
15408;SDS011;7803;48.130;13.788;2023-06-24T02:34:12;3.80;;;2.40;;
15408;SDS011;7803;48.130;13.788;2023-06-24T02:37:14;2.95;;;2.20;;
15408;SDS011;7803;48.130;13.788;2023-06-24T02:40:16;3.03;;;2.10;;
15408;SDS011;7803;48.130;13.788;2023-06-24T02:43:18;3.28;;;2.40;;
15408;SDS011;7803;48.130;13.788;2023-06-24T02:46:20;2.92;;;2.33;;
15408;SDS011;7803;48.130;13.788;2023-06-24T02:49:24;2.42;;;1.85;;
15408;SDS011;7803;48.130;13.788;2023-06-24T02:52:27;2.63;;;2.05;;
15408;SDS011;7803;48.130;13.788;2023-06-24T02:55:29;2.30;;;2.10;;
15408;SDS011;7803;48.130;13.788;2023-06-24T02:58:33;2.13;;;1.90;;
15408;SDS011;7803;48.130;13.788;2023-06-24T03:01:38;2.40;;;2.20;;
15408;SDS011;7803;48.130;13.788;2023-06-24T03:04:46;2.13;;;1.92;;
15408;SDS011;7803;48.130;13.788;2023-06-24T03:07:49;2.20;;;1.80;;
15408;SDS011;7803;48.130;13.788;2023-06-24T03:10:54;2.22;;;2.03;;
15408;SDS011;7803;48.130;13.788;2023-06-24T03:13:57;2.33;;;2.00;;
15408;SDS011;7803;48.130;13.788;2023-06-24T03:16:59;2.30;;;2.10;;
15408;SDS011;7803;48.130;13.788;2023-06-24T03:20:02;2.85;;;2.28;;
15408;SDS011;7803;48.130;13.788;2023-06-24T03:23:08;3.30;;;2.25;;
15408;SDS011;7803;48.130;13.788;2023-06-24T03:26:10;1.90;;;1.80;;
15408;SDS011;7803;48.130;13.788;2023-06-24T03:29:12;2.10;;;1.90;;
15408;SDS011;7803;48.130;13.788;2023-06-24T03:32:14;2.00;;;1.90;;
15408;SDS011;7803;48.130;13.788;2023-06-24T03:35:17;3.25;;;1.95;;
15408;SDS011;7803;48.130;13.788;2023-06-24T03:38:19;1.90;;;1.80;;
15408;SDS011;7803;48.130;13.788;2023-06-24T03:41:22;2.75;;;2.10;;
15408;SDS011;7803;48.130;13.788;2023-06-24T03:44:26;2.72;;;2.20;;
15408;SDS011;7803;48.130;13.788;2023-06-24T03:47:28;2.03;;;1.83;;
15408;SDS011;7803;48.130;13.788;2023-06-24T03:50:31;3.28;;;1.90;;
15408;SDS011;7803;48.130;13.788;2023-06-24T03:53:33;1.85;;;1.75;;
15408;SDS011;7803;48.130;13.788;2023-06-24T03:56:35;2.13;;;1.92;;
15408;SDS011;7803;48.130;13.788;2023-06-24T03:59:37;1.85;;;1.75;;
15408;SDS011;7803;48.130;13.788;2023-06-24T04:02:39;1.75;;;1.65;;
15408;SDS011;7803;48.130;13.788;2023-06-24T04:05:43;2.00;;;1.80;;
15408;SDS011;7803;48.130;13.788;2023-06-24T04:08:45;4.30;;;2.33;;
15408;SDS011;7803;48.130;13.788;2023-06-24T04:11:48;3.03;;;2.47;;
15408;SDS011;7803;48.130;13.788;2023-06-24T04:14:50;2.00;;;1.80;;
15408;SDS011;7803;48.130;13.788;2023-06-24T04:17:52;2.42;;;1.90;;
15408;SDS011;7803;48.130;13.788;2023-06-24T04:20:56;2.30;;;2.00;;
15408;SDS011;7803;48.130;13.788;2023-06-24T04:23:58;2.00;;;1.75;;
15408;SDS011;7803;48.130;13.788;2023-06-24T04:27:00;2.03;;;1.90;;
15408;SDS011;7803;48.130;13.788;2023-06-24T04:30:02;2.25;;;2.05;;
15408;SDS011;7803;48.130;13.788;2023-06-24T04:33:05;2.80;;;2.00;;
15408;SDS011;7803;48.130;13.788;2023-06-24T04:36:09;2.53;;;2.08;;
15408;SDS011;7803;48.130;13.788;2023-06-24T04:39:12;2.35;;;2.10;;
15408;SDS011;7803;48.130;13.788;2023-06-24T04:42:14;2.50;;;2.15;;
15408;SDS011;7803;48.130;13.788;2023-06-24T04:45:16;2.17;;;1.98;;
15408;SDS011;7803;48.130;13.788;2023-06-24T04:48:18;2.42;;;2.10;;
15408;SDS011;7803;48.130;13.788;2023-06-24T04:51:21;2.17;;;2.00;;
15408;SDS011;7803;48.130;13.788;2023-06-24T04:54:23;2.30;;;2.10;;
15408;SDS011;7803;48.130;13.788;2023-06-24T04:57:26;3.47;;;2.53;;
15408;SDS011;7803;48.130;13.788;2023-06-24T05:00:29;2.83;;;2.42;;
15408;SDS011;7803;48.130;13.788;2023-06-24T05:03:31;2.72;;;2.20;;
15408;SDS011;7803;48.130;13.788;2023-06-24T05:06:34;2.15;;;1.95;;
15408;SDS011;7803;48.130;13.788;2023-06-24T05:09:36;2.38;;;2.15;;
15408;SDS011;7803;48.130;13.788;2023-06-24T05:12:38;2.45;;;2.25;;
15408;SDS011;7803;48.130;13.788;2023-06-24T05:15:40;2.30;;;2.10;;
15408;SDS011;7803;48.130;13.788;2023-06-24T05:18:43;2.53;;;2.33;;
15408;SDS011;7803;48.130;13.788;2023-06-24T05:21:46;2.50;;;2.30;;
15408;SDS011;7803;48.130;13.788;2023-06-24T05:24:49;3.72;;;2.80;;
15408;SDS011;7803;48.130;13.788;2023-06-24T05:27:51;2.30;;;2.10;;
15408;SDS011;7803;48.130;13.788;2023-06-24T05:30:52;3.00;;;2.38;;
15408;SDS011;7803;48.130;13.788;2023-06-24T05:33:54;2.35;;;2.15;;
15408;SDS011;7803;48.130;13.788;2023-06-24T05:36:58;2.58;;;2.38;;
15408;SDS011;7803;48.130;13.788;2023-06-24T05:40:00;2.58;;;2.38;;
15408;SDS011;7803;48.130;13.788;2023-06-24T05:43:04;2.65;;;2.30;;
15408;SDS011;7803;48.130;13.788;2023-06-24T05:46:07;3.47;;;2.80;;
15408;SDS011;7803;48.130;13.788;2023-06-24T05:49:09;2.40;;;2.20;;
15408;SDS011;7803;48.130;13.788;2023-06-24T05:52:12;2.60;;;2.40;;
15408;SDS011;7803;48.130;13.788;2023-06-24T05:55:14;2.50;;;2.30;;
15408;SDS011;7803;48.130;13.788;2023-06-24T05:58:17;2.58;;;2.38;;
15408;SDS011;7803;48.130;13.788;2023-06-24T06:01:19;2.30;;;2.10;;
15408;SDS011;7803;48.130;13.788;2023-06-24T06:04:21;2.50;;;2.30;;
15408;SDS011;7803;48.130;13.788;2023-06-24T06:07:24;2.50;;;2.30;;
15408;SDS011;7803;48.130;13.788;2023-06-24T06:10:26;2.67;;;2.42;;
15408;SDS011;7803;48.130;13.788;2023-06-24T06:13:28;2.50;;;2.30;;
15408;SDS011;7803;48.130;13.788;2023-06-24T06:16:30;2.88;;;2.55;;
15408;SDS011;7803;48.130;13.788;2023-06-24T06:19:32;2.60;;;2.40;;
15408;SDS011;7803;48.130;13.788;2023-06-24T06:22:36;2.63;;;2.42;;
15408;SDS011;7803;48.130;13.788;2023-06-24T06:25:38;3.75;;;2.92;;
15408;SDS011;7803;48.130;13.788;2023-06-24T06:28:40;2.80;;;2.60;;
15408;SDS011;7803;48.130;13.788;2023-06-24T06:31:42;3.05;;;2.47;;
15408;SDS011;7803;48.130;13.788;2023-06-24T06:34:44;2.53;;;2.33;;
15408;SDS011;7803;48.130;13.788;2023-06-24T06:37:47;3.70;;;3.05;;
15408;SDS011;7803;48.130;13.788;2023-06-24T06:40:53;3.25;;;2.80;;
15408;SDS011;7803;48.130;13.788;2023-06-24T06:43:54;3.10;;;2.80;;
15408;SDS011;7803;48.130;13.788;2023-06-24T06:46:56;3.13;;;2.83;;
15408;SDS011;7803;48.130;13.788;2023-06-24T06:49:58;2.80;;;2.60;;
15408;SDS011;7803;48.130;13.788;2023-06-24T06:53:02;2.72;;;2.50;;
15408;SDS011;7803;48.130;13.788;2023-06-24T06:56:04;2.97;;;2.75;;
15408;SDS011;7803;48.130;13.788;2023-06-24T06:59:06;3.05;;;2.70;;
15408;SDS011;7803;48.130;13.788;2023-06-24T07:02:08;3.00;;;2.67;;
15408;SDS011;7803;48.130;13.788;2023-06-24T07:05:10;2.70;;;2.50;;
15408;SDS011;7803;48.130;13.788;2023-06-24T07:08:13;3.10;;;2.80;;
15408;SDS011;7803;48.130;13.788;2023-06-24T07:11:15;3.67;;;2.90;;
15408;SDS011;7803;48.130;13.788;2023-06-24T07:14:17;3.70;;;2.90;;
15408;SDS011;7803;48.130;13.788;2023-06-24T07:17:19;3.45;;;2.70;;
15408;SDS011;7803;48.130;13.788;2023-06-24T07:20:21;3.03;;;2.80;;
15408;SDS011;7803;48.130;13.788;2023-06-24T07:23:25;3.30;;;2.97;;
15408;SDS011;7803;48.130;13.788;2023-06-24T07:26:27;3.55;;;3.17;;
15408;SDS011;7803;48.130;13.788;2023-06-24T07:29:30;3.80;;;3.30;;
15408;SDS011;7803;48.130;13.788;2023-06-24T07:32:32;3.13;;;2.83;;
15408;SDS011;7803;48.130;13.788;2023-06-24T07:35:34;3.65;;;3.35;;
15408;SDS011;7803;48.130;13.788;2023-06-24T07:38:37;3.33;;;3.03;;
15408;SDS011;7803;48.130;13.788;2023-06-24T07:41:39;3.25;;;3.03;;
15408;SDS011;7803;48.130;13.788;2023-06-24T07:44:42;3.75;;;3.35;;
15408;SDS011;7803;48.130;13.788;2023-06-24T07:47:44;3.50;;;3.20;;
15408;SDS011;7803;48.130;13.788;2023-06-24T07:50:46;3.60;;;3.30;;
15408;SDS011;7803;48.130;13.788;2023-06-24T07:53:50;3.30;;;3.00;;
15408;SDS011;7803;48.130;13.788;2023-06-24T07:56:52;3.40;;;3.10;;
15408;SDS011;7803;48.130;13.788;2023-06-24T07:59:54;3.35;;;3.05;;
15408;SDS011;7803;48.130;13.788;2023-06-24T08:02:57;3.65;;;3.35;;
15408;SDS011;7803;48.130;13.788;2023-06-24T08:05:59;3.90;;;3.50;;
15408;SDS011;7803;48.130;13.788;2023-06-24T08:09:02;3.30;;;3.00;;
15408;SDS011;7803;48.130;13.788;2023-06-24T08:12:04;4.30;;;3.00;;
15408;SDS011;7803;48.130;13.788;2023-06-24T08:15:07;3.85;;;3.45;;
15408;SDS011;7803;48.130;13.788;2023-06-24T08:18:09;3.88;;;3.47;;
15408;SDS011;7803;48.130;13.788;2023-06-24T08:21:11;3.47;;;3.13;;
15408;SDS011;7803;48.130;13.788;2023-06-24T08:24:15;3.40;;;3.10;;
15408;SDS011;7803;48.130;13.788;2023-06-24T08:27:17;3.63;;;3.33;;
15408;SDS011;7803;48.130;13.788;2023-06-24T08:30:19;3.60;;;3.30;;
15408;SDS011;7803;48.130;13.788;2023-06-24T08:33:21;4.97;;;3.63;;
15408;SDS011;7803;48.130;13.788;2023-06-24T08:36:23;3.72;;;3.22;;
15408;SDS011;7803;48.130;13.788;2023-06-24T08:39:28;3.42;;;3.13;;
15408;SDS011;7803;48.130;13.788;2023-06-24T08:42:30;3.33;;;3.03;;
15408;SDS011;7803;48.130;13.788;2023-06-24T08:45:32;3.90;;;3.40;;
15408;SDS011;7803;48.130;13.788;2023-06-24T08:48:34;3.88;;;3.53;;
15408;SDS011;7803;48.130;13.788;2023-06-24T08:51:40;3.97;;;3.20;;
15408;SDS011;7803;48.130;13.788;2023-06-24T08:54:50;3.70;;;3.40;;
15408;SDS011;7803;48.130;13.788;2023-06-24T08:57:53;3.90;;;3.60;;
15408;SDS011;7803;48.130;13.788;2023-06-24T09:00:55;3.40;;;3.10;;
15408;SDS011;7803;48.130;13.788;2023-06-24T09:03:57;4.20;;;3.50;;
15408;SDS011;7803;48.130;13.788;2023-06-24T09:06:59;3.65;;;3.35;;
15408;SDS011;7803;48.130;13.788;2023-06-24T09:10:03;3.50;;;3.20;;
15408;SDS011;7803;48.130;13.788;2023-06-24T09:13:06;4.05;;;3.67;;
15408;SDS011;7803;48.130;13.788;2023-06-24T09:16:11;3.63;;;3.33;;
15408;SDS011;7803;48.130;13.788;2023-06-24T09:19:15;3.72;;;3.42;;
15408;SDS011;7803;48.130;13.788;2023-06-24T09:22:21;3.60;;;3.30;;
15408;SDS011;7803;48.130;13.788;2023-06-24T09:25:25;3.85;;;3.55;;
15408;SDS011;7803;48.130;13.788;2023-06-24T09:28:28;3.90;;;3.53;;
15408;SDS011;7803;48.130;13.788;2023-06-24T09:31:30;4.05;;;3.25;;
15408;SDS011;7803;48.130;13.788;2023-06-24T09:34:32;3.42;;;3.05;;
15408;SDS011;7803;48.130;13.788;2023-06-24T09:37:34;3.95;;;3.55;;
15408;SDS011;7803;48.130;13.788;2023-06-24T09:40:38;4.43;;;3.33;;
15408;SDS011;7803;48.130;13.788;2023-06-24T09:43:41;3.60;;;3.30;;
15408;SDS011;7803;48.130;13.788;2023-06-24T09:46:45;4.28;;;3.78;;
15408;SDS011;7803;48.130;13.788;2023-06-24T09:49:47;3.55;;;3.25;;
15408;SDS011;7803;48.130;13.788;2023-06-24T09:52:49;4.15;;;3.78;;
15408;SDS011;7803;48.130;13.788;2023-06-24T09:55:54;3.67;;;3.38;;
15408;SDS011;7803;48.130;13.788;2023-06-24T09:58:56;3.75;;;3.45;;
15408;SDS011;7803;48.130;13.788;2023-06-24T10:01:59;5.15;;;3.80;;
15408;SDS011;7803;48.130;13.788;2023-06-24T10:05:02;4.35;;;3.70;;
15408;SDS011;7803;48.130;13.788;2023-06-24T10:08:05;3.85;;;3.55;;
15408;SDS011;7803;48.130;13.788;2023-06-24T10:11:11;3.88;;;3.47;;
15408;SDS011;7803;48.130;13.788;2023-06-24T10:14:13;4.07;;;3.67;;
15408;SDS011;7803;48.130;13.788;2023-06-24T10:17:16;3.55;;;3.25;;
15408;SDS011;7803;48.130;13.788;2023-06-24T10:20:23;3.78;;;3.47;;
15408;SDS011;7803;48.130;13.788;2023-06-24T10:23:29;4.07;;;3.55;;
15408;SDS011;7803;48.130;13.788;2023-06-24T10:26:35;3.97;;;3.35;;
15408;SDS011;7803;48.130;13.788;2023-06-24T10:29:37;4.32;;;3.53;;
15408;SDS011;7803;48.130;13.788;2023-06-24T10:32:40;3.67;;;3.38;;
15408;SDS011;7803;48.130;13.788;2023-06-24T10:35:43;3.83;;;3.53;;
15408;SDS011;7803;48.130;13.788;2023-06-24T10:38:54;3.83;;;3.38;;
15408;SDS011;7803;48.130;13.788;2023-06-24T10:41:58;4.25;;;3.55;;
15408;SDS011;7803;48.130;13.788;2023-06-24T10:45:30;3.97;;;3.50;;
15408;SDS011;7803;48.130;13.788;2023-06-24T10:48:31;3.97;;;3.58;;
15408;SDS011;7803;48.130;13.788;2023-06-24T10:51:33;3.75;;;3.45;;
15408;SDS011;7803;48.130;13.788;2023-06-24T10:54:35;3.63;;;3.33;;
15408;SDS011;7803;48.130;13.788;2023-06-24T10:57:40;4.55;;;3.88;;
15408;SDS011;7803;48.130;13.788;2023-06-24T11:00:42;4.07;;;3.55;;
15408;SDS011;7803;48.130;13.788;2023-06-24T11:03:46;5.15;;;3.88;;
15408;SDS011;7803;48.130;13.788;2023-06-24T11:06:56;4.30;;;3.63;;
15408;SDS011;7803;48.130;13.788;2023-06-24T11:10:01;4.07;;;3.45;;
15408;SDS011;7803;48.130;13.788;2023-06-24T11:13:06;4.63;;;3.58;;
15408;SDS011;7803;48.130;13.788;2023-06-24T11:16:08;3.78;;;3.47;;
15408;SDS011;7803;48.130;13.788;2023-06-24T11:19:10;4.32;;;3.60;;
15408;SDS011;7803;48.130;13.788;2023-06-24T11:22:12;4.97;;;3.40;;
15408;SDS011;7803;48.130;13.788;2023-06-24T11:25:14;5.13;;;3.45;;
15408;SDS011;7803;48.130;13.788;2023-06-24T11:28:19;3.65;;;3.33;;
15408;SDS011;7803;48.130;13.788;2023-06-24T11:31:24;3.95;;;3.50;;
15408;SDS011;7803;48.130;13.788;2023-06-24T11:34:26;5.28;;;3.50;;
15408;SDS011;7803;48.130;13.788;2023-06-24T11:37:30;5.20;;;3.38;;
15408;SDS011;7803;48.130;13.788;2023-06-24T11:40:33;6.30;;;3.65;;
15408;SDS011;7803;48.130;13.788;2023-06-24T11:43:37;6.07;;;3.65;;
15408;SDS011;7803;48.130;13.788;2023-06-24T11:46:39;3.60;;;3.30;;
15408;SDS011;7803;48.130;13.788;2023-06-24T11:49:48;4.85;;;3.33;;
15408;SDS011;7803;48.130;13.788;2023-06-24T11:52:51;4.30;;;3.53;;
15408;SDS011;7803;48.130;13.788;2023-06-24T11:55:55;6.43;;;3.75;;
15408;SDS011;7803;48.130;13.788;2023-06-24T11:58:59;4.50;;;3.33;;
15408;SDS011;7803;48.130;13.788;2023-06-24T12:02:00;5.65;;;3.42;;
15408;SDS011;7803;48.130;13.788;2023-06-24T12:05:03;3.58;;;3.28;;
15408;SDS011;7803;48.130;13.788;2023-06-24T12:08:06;3.80;;;3.40;;
15408;SDS011;7803;48.130;13.788;2023-06-24T12:11:09;4.65;;;3.35;;
15408;SDS011;7803;48.130;13.788;2023-06-24T12:14:12;3.20;;;2.90;;
15408;SDS011;7803;48.130;13.788;2023-06-24T12:17:14;6.80;;;3.35;;
15408;SDS011;7803;48.130;13.788;2023-06-24T12:20:16;5.00;;;3.30;;
15408;SDS011;7803;48.130;13.788;2023-06-24T12:23:18;4.00;;;3.58;;
15408;SDS011;7803;48.130;13.788;2023-06-24T12:26:20;5.13;;;3.53;;
15408;SDS011;7803;48.130;13.788;2023-06-24T12:29:24;4.07;;;3.38;;
15408;SDS011;7803;48.130;13.788;2023-06-24T12:32:26;3.78;;;3.30;;
15408;SDS011;7803;48.130;13.788;2023-06-24T12:35:28;4.38;;;3.17;;
15408;SDS011;7803;48.130;13.788;2023-06-24T12:38:30;3.90;;;3.30;;
15408;SDS011;7803;48.130;13.788;2023-06-24T12:41:32;3.78;;;3.20;;
15408;SDS011;7803;48.130;13.788;2023-06-24T12:44:35;4.45;;;3.47;;
15408;SDS011;7803;48.130;13.788;2023-06-24T12:47:37;4.70;;;3.30;;
15408;SDS011;7803;48.130;13.788;2023-06-24T12:50:39;3.72;;;3.30;;
15408;SDS011;7803;48.130;13.788;2023-06-24T12:53:41;6.63;;;3.45;;
15408;SDS011;7803;48.130;13.788;2023-06-24T12:56:43;3.30;;;3.00;;
15408;SDS011;7803;48.130;13.788;2023-06-24T12:59:47;3.35;;;3.05;;
15408;SDS011;7803;48.130;13.788;2023-06-24T13:02:49;3.42;;;3.13;;
15408;SDS011;7803;48.130;13.788;2023-06-24T13:05:51;3.30;;;3.00;;
15408;SDS011;7803;48.130;13.788;2023-06-24T13:08:53;3.88;;;3.20;;
15408;SDS011;7803;48.130;13.788;2023-06-24T13:11:55;3.40;;;2.95;;
15408;SDS011;7803;48.130;13.788;2023-06-24T13:14:59;5.03;;;3.38;;
15408;SDS011;7803;48.130;13.788;2023-06-24T13:18:01;3.97;;;3.20;;
15408;SDS011;7803;48.130;13.788;2023-06-24T13:21:03;3.72;;;3.38;;
15408;SDS011;7803;48.130;13.788;2023-06-24T13:24:05;3.08;;;2.80;;
15408;SDS011;7803;48.130;13.788;2023-06-24T13:27:08;3.92;;;3.40;;
15408;SDS011;7803;48.130;13.788;2023-06-24T13:30:12;4.00;;;3.17;;
15408;SDS011;7803;48.130;13.788;2023-06-24T13:33:16;4.22;;;3.20;;
15408;SDS011;7803;48.130;13.788;2023-06-24T13:36:28;3.72;;;3.40;;
15408;SDS011;7803;48.130;13.788;2023-06-24T13:39:32;4.20;;;3.58;;
15408;SDS011;7803;48.130;13.788;2023-06-24T13:42:34;4.30;;;3.13;;
15408;SDS011;7803;48.130;13.788;2023-06-24T13:45:37;3.90;;;3.22;;
15408;SDS011;7803;48.130;13.788;2023-06-24T13:48:39;3.30;;;3.00;;
15408;SDS011;7803;48.130;13.788;2023-06-24T13:51:43;3.72;;;3.30;;
15408;SDS011;7803;48.130;13.788;2023-06-24T13:54:45;3.70;;;3.40;;
15408;SDS011;7803;48.130;13.788;2023-06-24T13:57:47;3.67;;;3.38;;
15408;SDS011;7803;48.130;13.788;2023-06-24T14:00:51;4.32;;;3.28;;
15408;SDS011;7803;48.130;13.788;2023-06-24T14:03:53;4.10;;;3.70;;
15408;SDS011;7803;48.130;13.788;2023-06-24T14:06:55;3.78;;;3.47;;
15408;SDS011;7803;48.130;13.788;2023-06-24T14:09:58;3.50;;;3.20;;
15408;SDS011;7803;48.130;13.788;2023-06-24T14:13:00;3.72;;;3.42;;
15408;SDS011;7803;48.130;13.788;2023-06-24T14:16:03;3.88;;;3.50;;
15408;SDS011;7803;48.130;13.788;2023-06-24T14:19:06;3.97;;;3.67;;
15408;SDS011;7803;48.130;13.788;2023-06-24T14:22:08;3.80;;;3.50;;
15408;SDS011;7803;48.130;13.788;2023-06-24T14:25:10;5.10;;;3.80;;
15408;SDS011;7803;48.130;13.788;2023-06-24T14:28:12;4.07;;;3.78;;
15408;SDS011;7803;48.130;13.788;2023-06-24T14:31:15;4.30;;;3.90;;
15408;SDS011;7803;48.130;13.788;2023-06-24T14:34:17;4.88;;;4.20;;
15408;SDS011;7803;48.130;13.788;2023-06-24T14:37:19;4.55;;;3.80;;
15408;SDS011;7803;48.130;13.788;2023-06-24T14:40:21;4.00;;;3.67;;
15408;SDS011;7803;48.130;13.788;2023-06-24T14:43:23;3.60;;;3.30;;
15408;SDS011;7803;48.130;13.788;2023-06-24T14:46:27;3.60;;;3.28;;
15408;SDS011;7803;48.130;13.788;2023-06-24T14:49:29;4.30;;;3.90;;
15408;SDS011;7803;48.130;13.788;2023-06-24T14:52:31;4.85;;;4.35;;
15408;SDS011;7803;48.130;13.788;2023-06-24T14:55:33;4.28;;;3.92;;
15408;SDS011;7803;48.130;13.788;2023-06-24T14:58:35;4.28;;;3.88;;
15408;SDS011;7803;48.130;13.788;2023-06-24T15:01:38;4.45;;;4.05;;
15408;SDS011;7803;48.130;13.788;2023-06-24T15:04:40;4.75;;;4.35;;
15408;SDS011;7803;48.130;13.788;2023-06-24T15:07:43;4.57;;;4.18;;
15408;SDS011;7803;48.130;13.788;2023-06-24T15:10:45;4.53;;;4.13;;
15408;SDS011;7803;48.130;13.788;2023-06-24T15:13:47;4.53;;;4.00;;
15408;SDS011;7803;48.130;13.788;2023-06-24T15:16:50;4.68;;;4.25;;
15408;SDS011;7803;48.130;13.788;2023-06-24T15:19:54;4.40;;;3.90;;
15408;SDS011;7803;48.130;13.788;2023-06-24T15:22:57;3.85;;;3.55;;
15408;SDS011;7803;48.130;13.788;2023-06-24T15:25:59;4.93;;;4.00;;
15408;SDS011;7803;48.130;13.788;2023-06-24T15:29:01;4.53;;;4.13;;
15408;SDS011;7803;48.130;13.788;2023-06-24T15:32:04;4.03;;;3.50;;
15408;SDS011;7803;48.130;13.788;2023-06-24T15:35:07;3.88;;;3.58;;
15408;SDS011;7803;48.130;13.788;2023-06-24T15:38:09;4.13;;;3.72;;
15408;SDS011;7803;48.130;13.788;2023-06-24T15:41:11;4.15;;;3.75;;
15408;SDS011;7803;48.130;13.788;2023-06-24T15:44:14;3.50;;;3.20;;
15408;SDS011;7803;48.130;13.788;2023-06-24T15:47:17;3.90;;;3.55;;
15408;SDS011;7803;48.130;13.788;2023-06-24T15:50:19;4.30;;;3.90;;
15408;SDS011;7803;48.130;13.788;2023-06-24T15:53:21;3.83;;;3.50;;
15408;SDS011;7803;48.130;13.788;2023-06-24T15:56:23;4.10;;;3.70;;
15408;SDS011;7803;48.130;13.788;2023-06-24T15:59:26;3.78;;;3.22;;
15408;SDS011;7803;48.130;13.788;2023-06-24T16:02:29;3.90;;;3.60;;
15408;SDS011;7803;48.130;13.788;2023-06-24T16:05:31;5.28;;;4.00;;
15408;SDS011;7803;48.130;13.788;2023-06-24T16:08:33;4.53;;;4.10;;
15408;SDS011;7803;48.130;13.788;2023-06-24T16:11:35;4.07;;;3.70;;
15408;SDS011;7803;48.130;13.788;2023-06-24T16:14:37;4.15;;;3.85;;
15408;SDS011;7803;48.130;13.788;2023-06-24T16:17:40;3.70;;;3.40;;
15408;SDS011;7803;48.130;13.788;2023-06-24T16:20:42;4.03;;;3.67;;
15408;SDS011;7803;48.130;13.788;2023-06-24T16:23:44;3.78;;;3.47;;
15408;SDS011;7803;48.130;13.788;2023-06-24T16:26:46;4.30;;;3.90;;
15408;SDS011;7803;48.130;13.788;2023-06-24T16:29:48;4.03;;;3.72;;
15408;SDS011;7803;48.130;13.788;2023-06-24T16:32:52;3.40;;;3.10;;
15408;SDS011;7803;48.130;13.788;2023-06-24T16:35:53;3.72;;;3.33;;
15408;SDS011;7803;48.130;13.788;2023-06-24T16:38:55;5.63;;;4.15;;
15408;SDS011;7803;48.130;13.788;2023-06-24T16:41:57;3.67;;;3.38;;
15408;SDS011;7803;48.130;13.788;2023-06-24T16:44:59;3.83;;;3.53;;
15408;SDS011;7803;48.130;13.788;2023-06-24T16:48:03;3.88;;;3.58;;
15408;SDS011;7803;48.130;13.788;2023-06-24T16:51:05;3.72;;;3.42;;
15408;SDS011;7803;48.130;13.788;2023-06-24T16:54:07;4.32;;;3.95;;
15408;SDS011;7803;48.130;13.788;2023-06-24T16:57:09;4.82;;;3.72;;
15408;SDS011;7803;48.130;13.788;2023-06-24T17:00:12;3.70;;;3.40;;
15408;SDS011;7803;48.130;13.788;2023-06-24T17:03:16;4.97;;;4.00;;
15408;SDS011;7803;48.130;13.788;2023-06-24T17:06:18;4.88;;;3.85;;
15408;SDS011;7803;48.130;13.788;2023-06-24T17:09:20;3.83;;;3.45;;
15408;SDS011;7803;48.130;13.788;2023-06-24T17:12:22;4.82;;;3.80;;
15408;SDS011;7803;48.130;13.788;2023-06-24T17:15:24;4.57;;;3.70;;
15408;SDS011;7803;48.130;13.788;2023-06-24T17:18:27;6.07;;;3.78;;
15408;SDS011;7803;48.130;13.788;2023-06-24T17:21:30;4.78;;;3.97;;
15408;SDS011;7803;48.130;13.788;2023-06-24T17:24:32;6.10;;;3.70;;
15408;SDS011;7803;48.130;13.788;2023-06-24T17:27:34;9.32;;;3.92;;
15408;SDS011;7803;48.130;13.788;2023-06-24T17:30:36;8.07;;;4.32;;
15408;SDS011;7803;48.130;13.788;2023-06-24T17:33:41;9.18;;;4.03;;
15408;SDS011;7803;48.130;13.788;2023-06-24T17:36:43;8.00;;;3.67;;
15408;SDS011;7803;48.130;13.788;2023-06-24T17:39:45;9.32;;;4.28;;
15408;SDS011;7803;48.130;13.788;2023-06-24T17:42:47;10.73;;;4.60;;
15408;SDS011;7803;48.130;13.788;2023-06-24T17:45:49;7.20;;;4.13;;
15408;SDS011;7803;48.130;13.788;2023-06-24T17:48:52;6.05;;;4.30;;
15408;SDS011;7803;48.130;13.788;2023-06-24T17:51:54;6.40;;;4.50;;
15408;SDS011;7803;48.130;13.788;2023-06-24T17:54:56;8.80;;;4.30;;
15408;SDS011;7803;48.130;13.788;2023-06-24T17:57:58;7.82;;;3.95;;
15408;SDS011;7803;48.130;13.788;2023-06-24T18:01:00;8.93;;;4.15;;
15408;SDS011;7803;48.130;13.788;2023-06-24T18:04:03;267.73;;;69.35;;
15408;SDS011;7803;48.130;13.788;2023-06-24T18:07:05;284.90;;;66.63;;
15408;SDS011;7803;48.130;13.788;2023-06-24T18:10:08;243.82;;;64.18;;
15408;SDS011;7803;48.130;13.788;2023-06-24T18:13:10;530.20;;;115.28;;
15408;SDS011;7803;48.130;13.788;2023-06-24T18:16:12;437.90;;;107.85;;
15408;SDS011;7803;48.130;13.788;2023-06-24T18:19:16;131.68;;;40.42;;
15408;SDS011;7803;48.130;13.788;2023-06-24T18:22:19;55.10;;;18.20;;
15408;SDS011;7803;48.130;13.788;2023-06-24T18:25:21;37.53;;;13.25;;